Terminal Aerodrome Forecast
Issued by NWS La Crosse, WI

Home | Current Version | Previous Version | Text Only | Print | Product List | Glossary On
Versions: 1 2 3 4 5 6 7 8 9 10 11 12 13 14 15 16 17
000
FTUS43 KARX 101720
TAFLSE
TAF
KLSE 101720Z 1018/1118 VRB03KT P6SM -SN BKN015
     FM102200 VRB03KT 4SM -SN OVC012
     FM110100 11004KT 1SM -SN OVC010
     FM111300 12008KT 1 1/2SM -SN OVC020=

USA.gov is the U.S. government's official web portal to all federal, state and local government web resources and services.